createdAt,value
2019-02-10T00:03:53.355Z,3.65
2019-02-10T00:06:25.697Z,3.63
2019-02-10T00:09:12.062Z,3.70
2019-02-10T00:11:42.706Z,3.75
2019-02-10T00:14:13.544Z,3.67
2019-02-10T00:16:57.075Z,3.54
2019-02-10T00:19:42.632Z,3.42
2019-02-10T00:22:31.859Z,3.41
2019-02-10T00:25:02.222Z,3.35
2019-02-10T00:27:46.230Z,3.39
2019-02-10T00:30:16.613Z,3.44
2019-02-10T00:32:47.059Z,3.50
2019-02-10T00:35:36.813Z,3.52
2019-02-10T00:38:07.333Z,3.52
2019-02-10T00:43:58.493Z,3.54
2019-02-10T00:46:47.994Z,3.53
2019-02-10T00:49:18.429Z,3.52
2019-02-10T00:52:01.717Z,3.40
2019-02-10T00:57:51.074Z,3.38
2019-02-10T01:00:23.721Z,3.41
2019-02-10T01:02:54.113Z,3.36
2019-02-10T01:05:24.540Z,3.36
2019-02-10T01:08:14.246Z,3.36
2019-02-10T01:13:41.060Z,3.32
2019-02-10T01:16:23.408Z,3.28
2019-02-10T01:22:06.426Z,3.27
2019-02-10T01:24:56.064Z,3.29
2019-02-10T01:30:28.849Z,3.29
2019-02-10T01:32:59.449Z,3.24
2019-02-10T01:35:29.520Z,3.23
2019-02-10T01:37:59.798Z,3.28
2019-02-10T01:40:41.685Z,3.30
2019-02-10T01:43:11.987Z,3.36
2019-02-10T01:46:01.651Z,3.33
2019-02-10T01:48:32.370Z,3.28
2019-02-10T01:51:04.693Z,3.28
2019-02-10T01:53:34.999Z,3.26
2019-02-10T01:56:16.496Z,3.27
2019-02-10T01:58:46.809Z,3.27
2019-02-10T02:01:17.111Z,3.27
2019-02-10T02:04:07.186Z,3.32
2019-02-10T02:06:39.342Z,3.29
2019-02-10T02:12:20.664Z,3.23
2019-02-10T02:15:11.531Z,3.28
2019-02-10T02:17:42.309Z,3.38
2019-02-10T02:20:31.718Z,3.42
2019-02-10T02:23:01.991Z,3.38
2019-02-10T02:28:52.494Z,3.34
2019-02-10T02:31:41.927Z,3.34
2019-02-10T02:34:12.337Z,3.54
2019-02-10T02:37:07.333Z,3.54
2019-02-10T02:39:38.052Z,3.50
2019-02-10T02:42:09.169Z,3.42
2019-02-10T02:44:51.054Z,3.36
2019-02-10T02:47:33.415Z,3.29
2019-02-10T02:52:52.882Z,3.22
2019-02-10T02:55:23.650Z,3.16
2019-02-10T02:57:53.946Z,3.11
2019-02-10T03:00:24.316Z,3.04
2019-02-10T03:02:54.653Z,3.02
2019-02-10T03:05:29.043Z,3.01
2019-02-10T03:07:59.260Z,3.04
2019-02-10T03:10:41.762Z,3.08
2019-02-10T03:13:33.899Z,3.14
2019-02-10T03:16:04.227Z,3.11
2019-02-10T03:18:34.766Z,3.19
2019-02-10T03:21:17.254Z,3.32
2019-02-10T03:23:59.521Z,3.39
2019-02-10T03:26:29.817Z,3.32
2019-02-10T03:29:00.122Z,3.30
2019-02-10T03:37:02.062Z,3.48
2019-02-10T03:40:10.377Z,3.48
2019-02-10T03:43:01.305Z,3.51
2019-02-10T03:45:34.244Z,3.59
2019-02-10T03:48:15.863Z,3.63
2019-02-10T03:51:08.210Z,3.64
2019-02-10T03:56:28.991Z,3.64
2019-02-10T03:59:11.178Z,3.62
2019-02-10T04:01:41.431Z,3.62
2019-02-10T04:04:11.756Z,3.54
2019-02-10T04:06:54.167Z,3.58
2019-02-10T04:09:36.230Z,3.65
2019-02-10T04:12:06.903Z,3.59
2019-02-10T04:14:48.628Z,3.64
2019-02-10T04:17:30.919Z,3.61
2019-02-10T04:20:01.211Z,3.69
2019-02-10T04:22:31.902Z,3.72
2019-02-10T04:25:14.366Z,3.74
2019-02-10T04:27:44.610Z,3.70
2019-02-10T04:33:34.002Z,3.77
2019-02-10T04:36:04.296Z,3.71
2019-02-10T04:41:38.787Z,3.82
2019-02-10T04:44:11.080Z,3.85
2019-02-10T04:46:53.292Z,3.86
2019-02-10T04:49:43.515Z,3.81
2019-02-10T04:52:29.953Z,3.82
2019-02-10T04:55:00.503Z,3.92
2019-02-10T04:58:17.082Z,4.00
2019-02-10T05:00:47.516Z,4.02
2019-02-10T05:03:18.126Z,4.00
2019-02-10T05:06:08.072Z,4.08
2019-02-10T05:08:38.406Z,4.17
2019-02-10T05:11:27.806Z,4.24
2019-02-10T05:14:09.675Z,4.32
2019-02-10T05:16:39.956Z,4.32
2019-02-10T05:19:10.253Z,4.35
2019-02-10T05:21:59.590Z,4.34
2019-02-10T05:24:29.864Z,4.38
2019-02-10T05:27:00.039Z,4.37
2019-02-10T05:29:44.497Z,4.29
2019-02-10T05:32:14.856Z,4.22
2019-02-10T05:34:47.341Z,4.13
2019-02-10T05:37:29.595Z,4.08
2019-02-10T05:40:11.878Z,4.04
2019-02-10T05:42:43.146Z,4.08
2019-02-10T05:48:19.675Z,4.12
2019-02-10T05:50:50.366Z,4.09
2019-02-10T05:53:31.982Z,4.02
2019-02-10T05:56:02.379Z,3.97
2019-02-10T05:58:32.947Z,3.89
2019-02-10T06:01:42.324Z,3.85
2019-02-10T06:04:12.753Z,3.87
2019-02-10T06:06:44.980Z,3.91
2019-02-10T06:09:15.299Z,3.97
2019-02-10T06:12:18.125Z,3.97
2019-02-10T06:17:30.832Z,3.82
2019-02-10T06:20:32.307Z,3.87
2019-02-10T06:23:02.683Z,3.91
2019-02-10T06:25:33.950Z,3.90
2019-02-10T06:28:23.604Z,4.03
2019-02-10T06:31:13.217Z,4.07
2019-02-10T06:33:43.490Z,4.10
2019-02-10T06:36:32.861Z,4.05
2019-02-10T06:41:44.387Z,4.01
2019-02-10T06:47:17.088Z,3.93
2019-02-10T06:49:59.295Z,3.88
2019-02-10T06:52:29.723Z,4.03
2019-02-10T06:55:00.969Z,4.18
2019-02-10T06:57:49.189Z,4.33
2019-02-10T07:00:42.247Z,4.39
2019-02-10T07:06:54.152Z,4.44
2019-02-10T07:10:02.540Z,4.42
2019-02-10T07:12:52.341Z,4.45
2019-02-10T07:16:01.080Z,4.55
2019-02-10T07:19:09.783Z,4.55
2019-02-10T07:21:44.219Z,4.48
2019-02-10T07:24:59.104Z,4.36
2019-02-10T07:30:43.527Z,4.33
2019-02-10T07:33:53.303Z,4.22
2019-02-10T07:36:52.493Z,4.12
2019-02-10T07:40:06.763Z,4.08
2019-02-10T07:43:18.142Z,4.10
2019-02-10T07:46:29.310Z,4.09
2019-02-10T07:49:23.040Z,4.07
2019-02-10T07:55:39.568Z,4.34
2019-02-10T07:58:48.287Z,4.38
2019-02-10T08:01:41.892Z,4.44
2019-02-10T08:04:50.581Z,4.55
2019-02-10T08:08:02.047Z,4.66
2019-02-10T08:10:44.072Z,4.78
2019-02-10T08:13:52.681Z,4.88
2019-02-10T08:16:40.448Z,4.96
2019-02-10T08:20:22.998Z,4.96
2019-02-10T08:23:28.327Z,4.89
2019-02-10T08:26:45.184Z,4.95
2019-02-10T08:33:25.851Z,4.89
2019-02-10T08:36:34.598Z,5.06
2019-02-10T08:39:44.394Z,5.18
2019-02-10T08:42:54.225Z,5.30
2019-02-10T08:46:02.720Z,5.33
2019-02-10T08:49:39.526Z,5.27
2019-02-10T08:52:51.938Z,5.21
2019-02-10T09:02:01.052Z,5.31
2019-02-10T09:04:32.953Z,5.26
2019-02-10T09:10:26.067Z,5.62
2019-02-10T09:16:13.751Z,5.71
2019-02-10T09:24:29.900Z,6.28
2019-02-10T09:27:11.790Z,6.37
2019-02-10T09:29:42.076Z,6.32
2019-02-10T09:35:09.681Z,6.33
2019-02-10T09:38:32.685Z,6.27
2019-02-10T09:44:43.458Z,6.61
2019-02-10T09:47:13.752Z,6.69
2019-02-10T09:49:56.162Z,6.70
2019-02-10T09:52:40.128Z,6.72
2019-02-10T09:55:12.431Z,6.78
2019-02-10T10:00:58.902Z,6.78
2019-02-10T10:09:19.327Z,7.03
2019-02-10T10:18:18.674Z,6.72
2019-02-10T10:21:33.844Z,6.69
2019-02-10T10:24:06.607Z,6.73
2019-02-10T10:29:39.561Z,6.59
2019-02-10T10:35:42.242Z,6.56
2019-02-10T10:38:06.016Z,6.43
2019-02-10T10:46:51.642Z,6.03
2019-02-10T10:49:47.730Z,5.94
2019-02-10T10:55:34.947Z,5.80
2019-02-10T11:08:25.580Z,5.98
2019-02-10T11:14:41.132Z,6.10
2019-02-10T11:17:43.347Z,6.06
2019-02-10T11:20:54.826Z,5.99
2019-02-10T11:24:14.197Z,5.90
2019-02-10T11:29:57.337Z,5.95
2019-02-10T11:35:45.101Z,5.97
2019-02-10T11:57:21.904Z,6.50
2019-02-10T12:03:03.046Z,6.79
2019-02-10T12:05:54.932Z,6.99
2019-02-10T12:08:34.990Z,7.04
2019-02-10T12:14:32.718Z,7.04
2019-02-10T12:20:13.724Z,7.10
2019-02-10T12:23:03.395Z,7.17
2019-02-10T12:26:13.710Z,7.17
2019-02-10T12:34:52.536Z,6.92
2019-02-10T12:37:40.651Z,6.84
2019-02-10T12:40:27.843Z,6.82
2019-02-10T12:43:09.561Z,6.76
2019-02-10T12:49:05.322Z,6.57
2019-02-10T12:52:16.379Z,6.56
2019-02-10T12:58:23.196Z,6.61
2019-02-10T13:04:14.129Z,6.67
2019-02-10T13:06:55.648Z,6.63
2019-02-10T13:09:45.205Z,6.66
2019-02-10T13:12:35.844Z,6.72
2019-02-10T13:15:29.061Z,6.73
2019-02-10T13:30:53.366Z,6.99
2019-02-10T13:33:34.812Z,7.05
2019-02-10T13:36:08.189Z,6.99
2019-02-10T13:39:59.532Z,6.96
2019-02-10T13:41:56.609Z,6.86
2019-02-10T13:44:46.312Z,6.84
2019-02-10T13:53:09.108Z,6.92
2019-02-10T13:56:39.082Z,6.95
2019-02-10T13:59:49.282Z,6.88
2019-02-10T14:08:52.075Z,6.89
2019-02-10T14:14:44.157Z,6.79
2019-02-10T14:17:38.083Z,6.80
2019-02-10T14:20:48.597Z,6.77
2019-02-10T14:26:46.448Z,6.58
2019-02-10T14:29:34.075Z,6.49
2019-02-10T14:32:02.872Z,6.69
2019-02-10T14:34:45.126Z,6.78
2019-02-10T14:37:17.068Z,6.83
2019-02-10T14:46:37.572Z,6.84
2019-02-10T14:52:10.052Z,7.13
2019-02-10T14:55:02.194Z,7.17
2019-02-10T14:58:01.136Z,7.22
2019-02-10T15:01:08.712Z,7.14
2019-02-10T15:09:13.815Z,6.97
2019-02-10T15:11:55.813Z,6.98
2019-02-10T15:14:33.079Z,7.06
2019-02-10T15:17:24.773Z,7.19
2019-02-10T15:19:55.224Z,7.27
2019-02-10T15:22:56.033Z,7.35
2019-02-10T15:26:02.407Z,7.32
2019-02-10T15:28:59.344Z,7.25
2019-02-10T15:31:14.599Z,7.23
2019-02-10T15:34:06.509Z,7.12
2019-02-10T15:36:55.658Z,6.98
2019-02-10T15:40:22.956Z,6.85
2019-02-10T15:43:04.797Z,6.63
2019-02-10T15:46:03.212Z,6.37
2019-02-10T15:48:37.361Z,6.16
2019-02-10T15:51:09.925Z,5.98
2019-02-10T15:53:40.168Z,5.93
2019-02-10T15:56:33.522Z,5.73
2019-02-10T15:59:03.765Z,5.69
2019-02-10T16:04:57.946Z,5.40
2019-02-10T16:07:41.401Z,5.38
2019-02-10T16:11:05.349Z,5.33
2019-02-10T16:16:31.863Z,5.27
2019-02-10T16:19:31.736Z,5.17
2019-02-10T16:25:15.983Z,5.18
2019-02-10T16:28:37.895Z,5.16
2019-02-10T16:34:44.066Z,5.10
2019-02-10T16:40:37.206Z,4.99
2019-02-10T16:43:09.160Z,4.95
2019-02-10T16:45:58.785Z,5.00
2019-02-10T16:51:26.256Z,5.02
2019-02-10T16:54:36.239Z,5.11
2019-02-10T16:57:27.078Z,5.05
2019-02-10T17:00:55.250Z,5.03
2019-02-10T17:11:14.435Z,5.13
2019-02-10T17:13:56.953Z,5.19
2019-02-10T17:16:50.502Z,5.18
2019-02-10T17:25:21.097Z,5.10
2019-02-10T17:28:03.358Z,5.07
2019-02-10T17:30:52.810Z,5.14
2019-02-10T17:33:23.600Z,5.20
2019-02-10T17:36:07.968Z,5.18
2019-02-10T17:38:59.143Z,5.13
2019-02-10T17:44:39.694Z,5.05
2019-02-10T17:53:05.652Z,5.04
2019-02-10T17:56:06.631Z,5.04
2019-02-10T17:59:30.292Z,5.07
2019-02-10T18:07:30.710Z,5.05
2019-02-10T18:10:13.150Z,5.06
2019-02-10T18:12:43.538Z,5.12
2019-02-10T18:16:29.974Z,5.06
2019-02-10T18:19:19.269Z,5.11
2019-02-10T18:22:08.799Z,5.08
2019-02-10T18:25:16.230Z,5.03
2019-02-10T18:28:13.400Z,5.02
2019-02-10T18:30:58.242Z,5.00
2019-02-10T18:33:56.868Z,5.04
2019-02-10T18:40:18.788Z,4.99
2019-02-10T18:43:30.289Z,4.94
2019-02-10T18:49:48.948Z,4.92
2019-02-10T18:52:57.242Z,4.91
2019-02-10T18:55:49.228Z,4.91
2019-02-10T18:58:36.423Z,4.91
2019-02-10T19:01:29.017Z,4.80
2019-02-10T19:04:28.264Z,4.79
2019-02-10T19:07:25.225Z,4.81
2019-02-10T19:13:51.380Z,4.79
2019-02-10T19:17:11.617Z,4.77
2019-02-10T19:26:06.343Z,4.81
2019-02-10T19:28:58.633Z,4.79
2019-02-10T19:32:25.985Z,4.73
2019-02-10T19:35:18.002Z,4.68
2019-02-10T19:47:54.933Z,4.61
2019-02-10T19:50:39.235Z,4.62
2019-02-10T19:56:36.721Z,4.51
2019-02-10T20:02:41.389Z,4.44
2019-02-10T20:05:31.402Z,4.45
2019-02-10T20:08:32.036Z,4.40
2019-02-10T20:14:47.790Z,4.34
2019-02-10T20:21:04.873Z,4.21
2019-02-10T20:26:44.229Z,4.33
2019-02-10T20:29:35.095Z,4.31
2019-02-10T20:32:18.282Z,4.29
2019-02-10T20:35:20.373Z,4.27
2019-02-10T20:37:56.397Z,4.27
2019-02-10T20:40:40.561Z,4.20
2019-02-10T20:44:24.819Z,4.18
2019-02-10T20:46:59.781Z,4.21
2019-02-10T20:49:51.219Z,4.19
2019-02-10T20:52:46.219Z,4.21
2019-02-10T20:55:34.794Z,4.19
2019-02-10T20:58:27.095Z,4.20
2019-02-10T21:04:22.446Z,4.08
2019-02-10T21:07:12.114Z,3.97
2019-02-10T21:09:54.085Z,3.84
2019-02-10T21:12:45.119Z,3.75
2019-02-10T21:15:34.212Z,3.66
2019-02-10T21:18:23.754Z,3.58
2019-02-10T21:24:21.403Z,3.46
2019-02-10T21:30:03.355Z,3.42
2019-02-10T21:36:01.036Z,3.40
2019-02-10T21:39:02.707Z,3.36
2019-02-10T21:45:22.175Z,3.34
2019-02-10T21:47:57.713Z,3.33
2019-02-10T21:50:27.958Z,3.35
2019-02-10T21:52:58.313Z,3.34
2019-02-10T21:55:49.325Z,3.33
2019-02-10T22:01:24.660Z,3.31
2019-02-10T22:04:16.442Z,3.25
2019-02-10T22:06:48.731Z,3.23
2019-02-10T22:12:40.496Z,3.16
2019-02-10T22:15:52.286Z,3.18
2019-02-10T22:18:26.974Z,3.19
2019-02-10T22:21:17.989Z,3.20
2019-02-10T22:26:50.333Z,3.22
2019-02-10T22:32:10.021Z,3.26
2019-02-10T22:37:48.781Z,3.29
2019-02-10T22:40:36.452Z,3.28
2019-02-10T22:46:11.028Z,3.34
2019-02-10T22:48:53.281Z,3.26
2019-02-10T22:51:24.489Z,3.24
2019-02-10T22:53:55.164Z,3.25
2019-02-10T22:57:13.903Z,3.21
2019-02-10T22:59:45.455Z,3.14
2019-02-10T23:02:21.256Z,3.11
2019-02-10T23:05:11.002Z,3.16
2019-02-10T23:07:43.744Z,3.15
2019-02-10T23:10:45.181Z,3.18
2019-02-10T23:13:17.498Z,3.15
2019-02-10T23:25:07.393Z,3.21
2019-02-10T23:28:03.747Z,3.17
2019-02-10T23:30:34.122Z,3.13
2019-02-10T23:33:16.232Z,3.14
2019-02-10T23:36:25.932Z,3.13
2019-02-10T23:38:56.261Z,3.11
2019-02-10T23:41:45.670Z,3.08
2019-02-10T23:44:34.876Z,3.05
2019-02-10T23:47:05.195Z,3.05
2019-02-10T23:49:51.746Z,3.09
2019-02-10T23:52:22.027Z,3.08
2019-02-10T23:54:52.544Z,3.04
2019-02-10T23:57:34.534Z,3.06
